Placerville, CA (95667)

9:14 AM PST en Febrero 07, 2016 (GMT -0800)
Ladera Lane | | Change Station
CLOSE
Current Station
Estación meteorológica personal
Location: Placerville, CA
Altura: 2090 ft
Estaciones meteorológicas cercanas

Alt 2090 ft 38.74 °N, 120.78 °W | Updated 31 seconds ago

Clear
Despejado
50.4 ° F
Sensación térmica 50.4 ° F
N
0.0
Viento Variable Viento desde Oeste
Gusts 2.0 mph

Hoy
Alta -- | Baja -- ° F
--% Posibilidad de precipitaciones
Ayer
Alta -- | Baja -- ° F
Precip. -- pul
Presión 30.31 pul
Visibilidad 10.0 Millas
Nubes Despejado
Punto de rocío 40 ° F
Humedad 67%
Precipitaciones 0.00 pul
Espesor de la nieve No disponible.
7:03 AM 5:31 PM
Creciente menguante, 1% visible
METAR KPVF 071655Z AUTO 00000KT 10SM CLR 13/00 A3031 RMK AO1
Presión 30.31 pul
Visibilidad 10.0 Millas
Nubes Despejado
Punto de rocío 40 ° F
Humedad 67%
Precipitaciones 0.00 pul
Espesor de la nieve No disponible.
7:03 AM 5:31 PM
Creciente menguante, 1% visible
METAR KPVF 071655Z AUTO 00000KT 10SM CLR 13/00 A3031 RMK AO1

10-Day Weather Forecast

Almanac

Astronomía

Feb. 07, 2016 Salida Puesta
Hora real
Crepúsculo civil
Crepúsculo náutico
Crepúsculo astronómico
Luna
Horas de luz
Horas de luz
Tomorrow will be .
, % of the Moon is Illuminated

Extremos de hoy

Máximos del estado Bajos del estado

Community

WunderPhotos

Upload Photos

1,891,236 ¡fotos cargadas!

WunderBlog® & News

Nearby

Calidad del aire

  Calidad del aire Índice AQ Contaminante
Not available.

Grosos de nieve

Estación Profundido Altura

Actividad de terremotos

Ciudad Distance Mag. Tiempo y dato
Magnitud mínima muestra es 2,5.

Temperaturas de aguas costeras

Lugar Temperatura

Stations

Estaciones meteorológicas cercanas

Ubicación de la estación Temp. Vientos helados Punto de rocío Humedad Viento Precip. Alt Actualizado Tipo
                   

Watches & Warnings

There are currently no watches in effect.